Time;durP1;ratioP1;P1;durP2;ratioP2;P2;SDS_P1;SDS_P2;PMS_P1;PMS_P2;Temp;Humidity;BMP_temperature;BMP_pressure;BME280_temperature;BME280_humidity;BME280_pressure;Samples;Min_cycle;Max_cycle;Signal;HPM_P1;HPM_P2
2022/07/20 01:01:40;;;;;;;157.73;147.07;;;25.60;47.20;;;;;;4994015;28;20097;-80
2022/07/20 01:04:07;;;;;;;153.63;142.77;;;25.50;46.70;;;;;;4992856;28;20078;-80
2022/07/20 01:06:34;;;;;;;152.60;142.02;;;25.50;47.00;;;;;;4992214;28;20841;-78
2022/07/20 01:09:01;;;;;;;154.85;144.52;;;25.50;47.20;;;;;;4992489;28;20588;-79
2022/07/20 01:11:28;;;;;;;152.75;142.25;;;25.40;47.00;;;;;;4993465;28;20078;-79
2022/07/20 01:14:01;;;;;;;158.02;147.23;;;25.40;47.20;;;;;;4992017;28;20057;-79
2022/07/20 01:16:28;;;;;;;151.37;140.97;;;25.40;47.10;;;;;;4992667;28;20058;-79
2022/07/20 01:18:56;;;;;;;155.32;144.50;;;25.40;47.30;;;;;;4993061;28;20138;-81
2022/07/20 01:21:25;;;;;;;151.85;141.45;;;25.30;47.10;;;;;;4992083;28;20053;-80
2022/07/20 01:23:52;;;;;;;152.00;141.40;;;25.30;47.20;;;;;;4993698;28;20142;-78
2022/07/20 01:26:19;;;;;;;150.45;139.80;;;25.30;47.10;;;;;;4991913;28;20069;-77
2022/07/20 01:28:47;;;;;;;151.40;141.10;;;25.20;47.20;;;;;;4975470;28;20190;-77
2022/07/20 01:31:14;;;;;;;151.35;140.95;;;25.20;47.30;;;;;;4991931;28;20051;-78
2022/07/20 01:33:40;;;;;;;150.85;140.23;;;25.20;47.70;;;;;;4995015;28;20051;-79
2022/07/20 01:36:08;;;;;;;148.52;138.30;;;25.10;47.60;;;;;;4996915;28;20059;-80
2022/07/20 01:38:36;;;;;;;150.90;140.10;;;25.10;47.60;;;;;;5015144;28;20133;-80
2022/07/20 01:41:03;;;;;;;149.82;139.35;;;25.10;47.80;;;;;;5037432;23;20051;-80
2022/07/20 01:43:30;;;;;;;148.57;137.93;;;25.10;47.70;;;;;;5011771;28;20564;-80
2022/07/20 01:45:57;;;;;;;149.30;138.77;;;25.10;47.40;;;;;;4996802;28;20620;-79
2022/07/20 01:48:24;;;;;;;148.23;137.63;;;25.00;47.50;;;;;;5027819;28;20055;-78
2022/07/20 01:50:51;;;;;;;148.60;137.95;;;25.00;47.60;;;;;;5028328;28;20051;-78
2022/07/20 01:53:18;;;;;;;147.60;136.90;;;25.00;47.60;;;;;;5027903;28;20055;-77
2022/07/20 01:55:46;;;;;;;147.20;136.55;;;25.00;47.40;;;;;;5028335;28;20051;-77
2022/07/20 01:58:13;;;;;;;148.27;137.70;;;24.90;47.60;;;;;;5027810;28;20047;-77
2022/07/20 02:00:40;;;;;;;149.00;138.43;;;24.90;47.70;;;;;;4996367;28;20595;-78
2022/07/20 02:03:07;;;;;;;146.63;136.13;;;24.90;47.60;;;;;;5028144;28;20058;-79
2022/07/20 02:05:34;;;;;;;150.05;139.20;;;24.90;47.80;;;;;;5027855;28;20059;-79
2022/07/20 02:08:00;;;;;;;147.77;136.95;;;24.80;47.80;;;;;;5027271;28;20509;-79
2022/07/20 02:10:27;;;;;;;147.82;137.52;;;24.80;47.70;;;;;;4995460;28;20062;-78
2022/07/20 02:12:56;;;;;;;147.77;137.15;;;24.80;47.80;;;;;;4995194;28;20093;-78
2022/07/20 02:18:08;;;;;;;146.15;135.63;;;24.70;47.90;;;;;;4994843;28;20050;-78
2022/07/20 02:20:36;;;;;;;147.45;136.95;;;24.70;48.00;;;;;;5011375;28;20051;-79
2022/07/20 02:23:04;;;;;;;146.63;136.02;;;24.60;47.80;;;;;;5011313;28;20449;-78
2022/07/20 02:25:31;;;;;;;147.18;136.48;;;24.60;47.70;;;;;;5011484;28;20051;-78
2022/07/20 02:28:00;;;;;;;147.18;136.68;;;24.60;47.60;;;;;;5010878;28;20069;-78
2022/07/20 02:30:27;;;;;;;147.60;136.77;;;24.60;47.80;;;;;;5010953;28;20520;-78
2022/07/20 02:32:53;;;;;;;145.25;134.73;;;24.50;47.90;;;;;;4994843;28;20057;-78
2022/07/20 02:35:20;;;;;;;149.13;138.43;;;24.50;48.20;;;;;;5011045;28;20503;-78
2022/07/20 02:37:47;;;;;;;149.55;138.82;;;24.50;47.80;;;;;;4995582;28;20141;-77
2022/07/20 02:40:15;;;;;;;149.85;139.18;;;24.50;47.70;;;;;;4994800;28;20073;-77
2022/07/20 02:42:43;;;;;;;154.05;142.75;;;24.50;48.10;;;;;;4993622;28;20133;-80
2022/07/20 02:45:12;;;;;;;147.63;136.93;;;24.40;47.70;;;;;;5009391;28;20066;-79
2022/07/20 02:47:44;;;;;;;148.15;137.63;;;24.40;47.80;;;;;;5026850;28;20472;-79
2022/07/20 02:50:11;;;;;;;147.35;136.48;;;24.40;48.20;;;;;;4995915;28;20058;-79
2022/07/20 02:52:39;;;;;;;154.32;140.30;;;24.30;47.90;;;;;;5027820;28;20125;-80
2022/07/20 02:55:06;;;;;;;155.93;139.05;;;24.20;47.70;;;;;;5027178;28;20055;-78
2022/07/20 02:57:33;;;;;;;147.90;136.43;;;24.20;47.80;;;;;;4993840;28;20053;-77
2022/07/20 03:00:01;;;;;;;147.48;136.30;;;24.20;48.00;;;;;;5027412;28;20061;-77
2022/07/20 03:02:29;;;;;;;147.32;135.88;;;24.10;47.90;;;;;;5026950;28;20145;-78
2022/07/20 03:04:56;;;;;;;145.35;133.60;;;24.10;47.90;;;;;;4995361;28;20055;-78
2022/07/20 03:07:23;;;;;;;144.85;133.90;;;24.10;48.30;;;;;;4994778;28;20601;-77
2022/07/20 03:09:50;;;;;;;147.07;135.80;;;24.10;48.20;;;;;;4995325;28;20065;-77
2022/07/20 03:12:17;;;;;;;147.00;135.73;;;24.10;48.30;;;;;;5026469;28;20057;-78
2022/07/20 03:14:44;;;;;;;144.05;133.25;;;24.00;48.20;;;;;;5027029;28;20062;-78
2022/07/20 03:17:11;;;;;;;146.38;135.13;;;24.10;48.60;;;;;;4993543;28;20050;-78
2022/07/20 03:19:39;;;;;;;145.80;134.75;;;24.00;48.60;;;;;;4993652;28;20057;-78
2022/07/20 03:22:06;;;;;;;145.55;134.35;;;24.00;48.50;;;;;;5010240;28;20054;-78
2022/07/20 03:24:33;;;;;;;145.48;134.48;;;24.00;48.30;;;;;;4993581;28;20133;-78
2022/07/20 03:27:00;;;;;;;145.70;134.70;;;24.00;48.30;;;;;;4995436;28;20054;-77
2022/07/20 03:29:27;;;;;;;144.73;133.43;;;24.00;48.30;;;;;;4994869;28;20154;-77
2022/07/20 03:31:54;;;;;;;143.27;132.57;;;23.90;48.50;;;;;;4993515;28;20797;-78
2022/07/20 03:34:21;;;;;;;144.80;133.77;;;23.90;48.70;;;;;;4993679;28;20054;-78
2022/07/20 03:36:49;;;;;;;144.82;133.77;;;23.80;48.60;;;;;;4993464;28;20047;-78
2022/07/20 03:39:16;;;;;;;144.68;133.65;;;23.80;48.60;;;;;;4993073;28;20062;-76
2022/07/20 03:41:44;;;;;;;146.52;135.32;;;23.80;48.50;;;;;;4992940;28;20061;-77
2022/07/20 03:44:10;;;;;;;145.68;134.68;;;23.80;48.40;;;;;;4993186;28;20058;-77
2022/07/20 03:46:37;;;;;;;146.70;135.80;;;23.70;48.40;;;;;;4993202;28;20055;-77
2022/07/20 03:49:04;;;;;;;147.13;136.13;;;23.70;48.50;;;;;;4993414;28;20054;-80
2022/07/20 03:51:31;;;;;;;144.23;133.45;;;23.70;48.60;;;;;;4992111;28;20491;-79
2022/07/20 03:53:59;;;;;;;146.07;135.00;;;23.70;48.80;;;;;;4993295;28;20047;-78
2022/07/20 03:56:26;;;;;;;144.40;133.18;;;23.60;48.40;;;;;;4993029;28;20519;-77
2022/07/20 03:58:53;;;;;;;145.05;133.85;;;23.60;48.30;;;;;;4992972;28;20082;-78
2022/07/20 04:01:20;;;;;;;146.07;134.90;;;23.60;48.60;;;;;;4993208;28;20058;-81
2022/07/20 04:03:47;;;;;;;143.88;132.77;;;23.60;48.80;;;;;;4992868;28;20051;-79
2022/07/20 04:06:14;;;;;;;143.93;132.82;;;23.50;48.70;;;;;;4993516;28;20051;-81
2022/07/20 04:08:41;;;;;;;143.35;132.13;;;23.50;48.70;;;;;;4992908;28;20047;-78
2022/07/20 04:11:09;;;;;;;142.57;131.60;;;23.50;48.80;;;;;;4993047;28;20082;-78
2022/07/20 04:13:36;;;;;;;146.35;134.98;;;23.50;48.90;;;;;;4993010;28;20050;-78
2022/07/20 04:16:03;;;;;;;146.50;135.52;;;23.50;49.00;;;;;;4992986;28;20125;-78
2022/07/20 04:18:30;;;;;;;146.45;135.35;;;23.40;49.00;;;;;;5009144;28;20047;-81
2022/07/20 04:20:57;;;;;;;146.20;134.95;;;23.40;48.90;;;;;;4993203;28;20091;-78
2022/07/20 04:23:24;;;;;;;145.23;134.18;;;23.40;49.00;;;;;;4991956;28;20138;-78
2022/07/20 04:25:51;;;;;;;141.38;130.57;;;23.40;48.90;;;;;;4993125;28;20051;-78
2022/07/20 04:28:19;;;;;;;146.10;134.50;;;23.40;49.00;;;;;;4992644;28;20047;-78
2022/07/20 04:30:46;;;;;;;145.15;133.82;;;23.40;49.00;;;;;;4993072;28;20520;-79
2022/07/20 04:33:13;;;;;;;145.80;130.45;;;23.30;49.00;;;;;;4993050;28;20061;-79
2022/07/20 04:35:40;;;;;;;148.82;134.20;;;23.30;49.10;;;;;;5009466;28;20497;-80
2022/07/20 04:38:07;;;;;;;149.00;133.93;;;23.30;49.20;;;;;;5008989;28;20061;-78
2022/07/20 04:40:34;;;;;;;188.65;133.23;;;23.30;49.20;;;;;;4993785;28;20129;-78
2022/07/20 04:43:01;;;;;;;143.35;130.98;;;23.30;49.30;;;;;;4992692;28;20508;-79
2022/07/20 04:45:29;;;;;;;142.55;130.80;;;23.30;49.30;;;;;;4992528;28;20532;-81
2022/07/20 04:47:56;;;;;;;142.75;130.27;;;23.30;49.30;;;;;;4992372;28;20039;-80
2022/07/20 04:50:23;;;;;;;142.20;130.43;;;23.20;49.30;;;;;;4992590;28;20050;-80
2022/07/20 04:52:50;;;;;;;144.70;132.43;;;23.20;49.50;;;;;;4992297;28;20130;-80
2022/07/20 04:55:17;;;;;;;143.32;131.45;;;23.20;49.60;;;;;;4992487;28;20055;-81
2022/07/20 04:57:44;;;;;;;142.30;130.82;;;23.20;49.80;;;;;;4998149;28;20055;-79
2022/07/20 05:00:11;;;;;;;141.23;129.45;;;23.20;50.00;;;;;;5009172;28;20511;-79
2022/07/20 05:02:40;;;;;;;140.63;129.40;;;23.20;50.00;;;;;;5024994;28;20845;-78
2022/07/20 05:05:07;;;;;;;140.50;129.10;;;23.20;50.30;;;;;;5008143;28;20128;-78
2022/07/20 05:07:35;;;;;;;143.30;131.98;;;23.20;50.50;;;;;;5010951;28;20077;-77
2022/07/20 05:10:02;;;;;;;143.63;130.88;;;23.20;50.60;;;;;;4995764;28;20484;-79
2022/07/20 05:12:29;;;;;;;140.40;128.07;;;23.20;50.60;;;;;;5015577;28;20961;-77
2022/07/20 05:14:56;;;;;;;145.82;131.88;;;23.20;50.40;;;;;;4999992;28;20077;-78
2022/07/20 05:17:22;;;;;;;146.85;134.20;;;23.20;50.20;;;;;;5001930;28;20076;-77
2022/07/20 05:19:51;;;;;;;156.57;140.40;;;23.20;50.30;;;;;;5025280;28;20073;-77
2022/07/20 05:22:18;;;;;;;147.90;134.10;;;23.20;50.00;;;;;;5017872;28;20050;-77
2022/07/20 05:24:45;;;;;;;144.20;132.13;;;23.20;49.70;;;;;;5000610;28;20054;-77
2022/07/20 05:27:12;;;;;;;149.70;135.73;;;23.20;50.00;;;;;;4996568;28;20055;-77
2022/07/20 05:29:39;;;;;;;172.38;137.93;;;23.10;50.00;;;;;;4998902;28;20054;-77
2022/07/20 05:32:07;;;;;;;144.00;129.93;;;23.20;50.00;;;;;;4997854;28;20085;-79
2022/07/20 05:34:34;;;;;;;151.32;135.50;;;23.20;50.20;;;;;;4998217;28;20059;-78
2022/07/20 05:37:02;;;;;;;142.18;130.57;;;23.10;50.30;;;;;;5014301;28;20495;-79
2022/07/20 05:39:29;;;;;;;142.40;130.85;;;23.10;50.00;;;;;;5014674;28;20051;-75
2022/07/20 05:41:56;;;;;;;144.73;132.55;;;23.10;50.00;;;;;;4998357;28;20157;-78
2022/07/20 05:44:23;;;;;;;147.00;132.63;;;23.10;50.40;;;;;;5013841;28;20061;-78
2022/07/20 05:46:50;;;;;;;144.45;132.60;;;23.10;50.30;;;;;;4999059;28;20980;-78
2022/07/20 05:49:17;;;;;;;145.07;132.48;;;23.20;50.20;;;;;;5030312;28;20174;-78
2022/07/20 05:51:44;;;;;;;146.27;133.80;;;23.20;50.30;;;;;;5014222;28;20043;-78
2022/07/20 05:54:12;;;;;;;144.50;131.48;;;23.20;50.70;;;;;;5015318;28;20125;-76
2022/07/20 05:56:39;;;;;;;143.93;132.30;;;23.20;50.70;;;;;;4999633;28;20078;-79
2022/07/20 05:59:06;;;;;;;146.05;134.02;;;23.20;50.50;;;;;;5016945;28;20055;-77
2022/07/20 06:01:33;;;;;;;145.48;133.85;;;23.30;50.60;;;;;;5025828;28;20043;-74
2022/07/20 06:04:00;;;;;;;143.13;131.18;;;23.30;50.60;;;;;;5033461;28;20058;-80
2022/07/20 06:06:27;;;;;;;143.50;131.98;;;23.30;50.90;;;;;;5024965;28;20527;-75
2022/07/20 06:08:54;;;;;;;142.95;131.63;;;23.40;50.60;;;;;;4998391;28;20086;-76
2022/07/20 06:11:23;;;;;;;142.13;130.43;;;23.40;50.40;;;;;;4998959;28;20133;-77
2022/07/20 06:13:50;;;;;;;144.70;133.40;;;23.40;50.20;;;;;;4996990;28;20063;-74
2022/07/20 06:16:17;;;;;;;145.93;134.45;;;23.50;50.20;;;;;;4995966;28;20051;-74
2022/07/20 06:18:43;;;;;;;145.60;134.23;;;23.60;50.20;;;;;;4995310;28;20130;-76
2022/07/20 06:21:13;;;;;;;146.15;134.60;;;23.60;50.30;;;;;;4994240;28;20054;-72
2022/07/20 06:23:40;;;;;;;145.40;134.00;;;23.70;50.50;;;;;;4994339;28;20125;-75
2022/07/20 06:26:07;;;;;;;147.18;135.38;;;23.70;50.30;;;;;;4993316;28;20058;-75
2022/07/20 06:28:36;;;;;;;146.57;135.57;;;23.70;50.30;;;;;;4992108;28;20054;-74
2022/07/20 06:31:03;;;;;;;147.63;136.15;;;23.80;50.30;;;;;;5008787;28;20529;-74
2022/07/20 06:33:30;;;;;;;148.68;137.30;;;23.90;50.90;;;;;;4993012;28;20057;-75
2022/07/20 06:35:57;;;;;;;147.25;135.77;;;23.90;50.60;;;;;;5010971;28;20054;-82
2022/07/20 06:38:24;;;;;;;148.07;136.70;;;24.00;51.20;;;;;;5010959;28;20105;-79
2022/07/20 06:40:51;;;;;;;146.32;134.77;;;24.00;51.00;;;;;;5008427;28;20043;-82
2022/07/20 06:43:18;;;;;;;146.45;135.20;;;24.10;50.70;;;;;;4995953;28;20496;-85
2022/07/20 06:45:49;;;;;;;148.77;137.07;;;24.20;50.40;;;;;;4993749;28;20058;-85
2022/07/20 06:48:16;;;;;;;148.00;136.25;;;24.30;50.10;;;;;;5005537;28;20058;-78
2022/07/20 06:50:43;;;;;;;150.50;138.77;;;24.40;50.20;;;;;;4989286;28;20044;-80
2022/07/20 06:53:09;;;;;;;152.73;140.63;;;24.50;50.10;;;;;;5005484;28;20057;-80
2022/07/20 06:55:36;;;;;;;154.25;142.65;;;24.50;50.30;;;;;;5005800;28;20059;-79
2022/07/20 06:58:03;;;;;;;153.70;141.80;;;24.60;50.10;;;;;;5005067;28;20107;-76
2022/07/20 07:00:30;;;;;;;147.77;135.98;;;24.60;50.00;;;;;;5006502;28;20130;-75
2022/07/20 07:02:59;;;;;;;149.07;137.57;;;24.70;49.90;;;;;;5007402;28;20130;-78
2022/07/20 07:05:25;;;;;;;149.10;137.50;;;24.80;49.90;;;;;;4975950;28;21171;-78
2022/07/20 07:07:52;;;;;;;151.52;139.98;;;24.80;50.20;;;;;;4974189;28;20055;-78
2022/07/20 07:10:19;;;;;;;149.60;138.23;;;24.90;50.50;;;;;;4990906;28;20804;-80
2022/07/20 07:12:46;;;;;;;150.15;138.75;;;25.00;50.80;;;;;;5007262;28;20053;-85
2022/07/20 07:15:14;;;;;;;154.10;142.00;;;25.00;51.40;;;;;;5006733;28;20054;-74
2022/07/20 07:17:41;;;;;;;155.95;143.65;;;25.10;52.00;;;;;;4993276;28;20521;-70
2022/07/20 07:20:10;;;;;;;154.32;142.48;;;25.10;51.90;;;;;;5024636;28;20057;-71
2022/07/20 07:22:38;;;;;;;154.32;142.13;;;25.20;52.10;;;;;;4992822;28;20083;-74
2022/07/20 07:25:06;;;;;;;154.18;142.13;;;25.30;52.30;;;;;;4992704;28;20051;-72
2022/07/20 07:27:33;;;;;;;153.18;141.27;;;25.30;52.10;;;;;;4992799;28;20138;-74
2022/07/20 07:30:00;;;;;;;156.55;144.50;;;25.40;52.40;;;;;;5022522;28;20050;-70
2022/07/20 07:32:27;;;;;;;157.05;144.48;;;25.50;52.80;;;;;;4994177;28;20055;-72
2022/07/20 07:34:54;;;;;;;157.90;145.88;;;25.50;52.90;;;;;;4994390;28;20077;-73
2022/07/20 07:37:22;;;;;;;155.55;143.77;;;25.60;53.30;;;;;;4993021;28;20061;-72
2022/07/20 07:39:49;;;;;;;158.32;145.98;;;25.60;53.40;;;;;;5011730;28;20145;-69
2022/07/20 07:42:17;;;;;;;157.52;145.63;;;25.70;53.30;;;;;;4992325;28;20050;-70
2022/07/20 07:44:43;;;;;;;159.50;147.10;;;25.80;53.50;;;;;;5009774;28;20046;-72
2022/07/20 07:47:10;;;;;;;166.15;153.68;;;25.80;53.50;;;;;;4992470;28;20513;-73
2022/07/20 07:49:38;;;;;;;156.43;144.25;;;25.90;53.70;;;;;;5013595;28;20587;-72
2022/07/20 07:52:05;;;;;;;161.07;148.27;;;26.00;54.10;;;;;;4997808;28;20138;-72
2022/07/20 07:54:34;;;;;;;159.70;147.20;;;26.00;54.80;;;;;;5000341;28;20054;-72
2022/07/20 07:57:01;;;;;;;163.02;150.20;;;26.10;55.40;;;;;;4980384;28;20082;-71
2022/07/20 07:59:28;;;;;;;161.30;148.77;;;26.20;55.20;;;;;;5020305;28;20090;-73
2022/07/20 08:01:55;;;;;;;171.10;158.02;;;26.20;55.60;;;;;;5024777;23;20047;-73
2022/07/20 08:04:22;;;;;;;170.73;157.63;;;26.30;56.10;;;;;;5009693;28;20132;-74
2022/07/20 08:06:50;;;;;;;164.80;152.27;;;26.30;56.10;;;;;;5012106;28;20137;-81
2022/07/20 08:09:17;;;;;;;166.43;153.75;;;26.40;56.50;;;;;;5021905;28;20576;-78
2022/07/20 08:11:46;;;;;;;167.25;154.30;;;26.50;56.40;;;;;;5012944;28;20818;-78
2022/07/20 08:14:13;;;;;;;171.20;158.07;;;26.50;56.50;;;;;;5006426;28;20050;-79
2022/07/20 08:16:40;;;;;;;171.05;157.95;;;26.60;56.80;;;;;;5011280;28;20050;-76
2022/07/20 08:19:07;;;;;;;166.88;153.93;;;26.60;56.70;;;;;;5024622;28;20469;-77
2022/07/20 08:21:34;;;;;;;174.35;161.10;;;26.60;57.00;;;;;;5017096;28;20140;-84
2022/07/20 08:24:01;;;;;;;176.15;162.75;;;26.70;57.60;;;;;;5023821;28;20054;-84
2022/07/20 08:26:30;;;;;;;172.52;159.50;;;26.70;58.30;;;;;;5005177;28;20146;-88
2022/07/20 08:28:59;;;;;;;179.75;166.25;;;26.70;58.00;;;;;;4985840;28;20054;-76
2022/07/20 08:31:26;;;;;;;177.98;164.57;;;26.80;58.40;;;;;;5010862;28;20052;-84
2022/07/20 08:33:53;;;;;;;177.52;164.15;;;26.80;58.60;;;;;;5012364;28;20051;-80
2022/07/20 08:36:20;;;;;;;181.88;168.50;;;26.80;59.00;;;;;;5020686;28;20050;-79
2022/07/20 08:38:46;;;;;;;182.50;168.95;;;26.90;59.40;;;;;;5007946;28;20057;-78
2022/07/20 08:41:15;;;;;;;182.93;169.02;;;26.90;59.70;;;;;;5010427;28;20054;-78
2022/07/20 08:43:42;;;;;;;182.63;168.48;;;27.00;60.40;;;;;;5009917;28;20583;-78
2022/07/20 08:46:11;;;;;;;178.32;164.88;;;27.00;60.20;;;;;;5011047;28;20074;-78
2022/07/20 08:48:42;;;;;;;180.57;166.88;;;27.10;59.50;;;;;;5019428;28;20118;-77
2022/07/20 08:51:09;;;;;;;180.00;166.27;;;27.10;59.80;;;;;;5008315;28;20393;-77
2022/07/20 08:53:36;;;;;;;177.88;164.30;;;27.10;60.30;;;;;;5024106;28;20042;-78
2022/07/20 08:56:03;;;;;;;179.45;165.93;;;27.20;60.40;;;;;;5036303;28;20055;-78
2022/07/20 08:58:30;;;;;;;177.45;164.25;;;27.20;60.40;;;;;;5022420;28;20042;-76
2022/07/20 09:00:57;;;;;;;181.50;167.55;;;27.30;60.20;;;;;;5007944;28;20120;-77
2022/07/20 09:03:25;;;;;;;183.73;170.10;;;27.30;60.70;;;;;;5011327;28;20057;-79
2022/07/20 09:06:03;;;;;;;185.77;171.40;;;27.40;60.40;;;;;;5023997;28;20051;-80
2022/07/20 09:08:30;;;;;;;187.05;173.75;;;27.50;60.00;;;;;;5025017;28;20050;-78
2022/07/20 09:11:01;;;;;;;191.60;177.27;;;27.40;59.20;;;;;;5005522;28;20555;-78
2022/07/20 09:13:29;;;;;;;190.13;175.95;;;27.50;59.40;;;;;;5012552;28;20057;-76
2022/07/20 09:15:57;;;;;;;195.07;180.52;;;27.50;59.80;;;;;;5005069;28;20060;-76
2022/07/20 09:18:27;;;;;;;195.77;180.98;;;27.50;59.10;;;;;;5003602;28;20137;-78
2022/07/20 09:20:55;;;;;;;197.52;182.63;;;27.50;59.20;;;;;;5005133;28;20572;-77
2022/07/20 09:23:24;;;;;;;196.77;182.07;;;27.40;59.30;;;;;;5016480;28;20061;-76
2022/07/20 09:25:54;;;;;;;191.95;177.15;;;27.40;59.30;;;;;;5006898;28;20043;-78
2022/07/20 09:28:22;;;;;;;188.93;174.73;;;27.40;59.40;;;;;;5011081;28;20057;-80
2022/07/20 09:30:54;;;;;;;193.30;178.45;;;27.40;59.60;;;;;;5009512;28;20613;-80
2022/07/20 09:33:31;;;;;;;187.40;172.90;;;27.40;59.10;;;;;;5020859;28;20054;-79
2022/07/20 09:36:04;;;;;;;186.77;172.98;;;27.40;59.60;;;;;;5009061;28;20058;-78
2022/07/20 09:38:33;;;;;;;;;;;27.40;59.40;;;;;;5017102;28;20047;-79
2022/07/20 09:41:02;;;;;;;183.68;169.73;;;27.30;59.20;;;;;;5025854;28;19926;-80
2022/07/20 09:43:31;;;;;;;184.48;170.13;;;27.30;58.90;;;;;;5026376;28;20070;-80
2022/07/20 09:46:11;;;;;;;181.02;167.18;;;27.30;59.40;;;;;;5027479;28;20090;-80
2022/07/20 09:48:45;;;;;;;186.13;171.68;;;27.20;59.30;;;;;;5019192;28;20055;-83
2022/07/20 09:51:20;;;;;;;192.27;178.45;;;27.30;58.70;;;;;;5036455;28;20141;-81
2022/07/20 09:53:48;;;;;;;186.23;172.77;;;27.30;58.80;;;;;;5021258;28;20081;-78
2022/07/20 09:56:17;;;;;;;183.77;169.88;;;27.30;57.70;;;;;;5059460;23;20510;-78
2022/07/20 09:58:47;;;;;;;186.40;173.07;;;27.30;57.60;;;;;;5009478;28;20551;-79
2022/07/20 10:01:19;;;;;;;179.77;166.63;;;27.30;57.00;;;;;;5026813;28;20519;-90
2022/07/20 10:03:50;;;;;;;179.70;166.75;;;27.30;56.00;;;;;;5014357;28;20415;-82
2022/07/20 10:06:19;;;;;;;189.13;175.00;;;27.30;55.70;;;;;;5021036;28;20054;-87
2022/07/20 10:08:49;;;;;;;177.43;164.55;;;27.20;55.90;;;;;;5031648;28;20523;-90
2022/07/20 10:11:17;;;;;;;183.73;170.43;;;27.20;55.90;;;;;;5046870;28;20145;-85
2022/07/20 10:13:48;;;;;;;181.40;168.45;;;27.10;56.40;;;;;;5014082;28;20140;-85
2022/07/20 10:16:22;;;;;;;184.35;171.05;;;27.10;56.10;;;;;;5013884;28;20070;-82
2022/07/20 10:18:51;;;;;;;184.80;171.35;;;27.20;56.90;;;;;;5028336;28;20075;-82
2022/07/20 10:21:36;;;;;;;176.75;163.75;;;27.10;56.60;;;;;;5023957;28;20053;-79
2022/07/20 10:24:27;;;;;;;182.70;169.50;;;27.20;55.50;;;;;;5028702;28;20050;-79
2022/07/20 10:26:56;;;;;;;179.70;166.77;;;27.20;56.60;;;;;;5013213;28;20061;-80
2022/07/20 10:29:28;;;;;;;187.52;174.23;;;27.30;55.00;;;;;;5030016;28;20097;-79
2022/07/20 10:31:57;;;;;;;183.75;170.60;;;27.30;55.20;;;;;;5014173;28;20050;-79
2022/07/20 10:34:37;;;;;;;183.52;170.52;;;27.30;54.70;;;;;;5026728;28;20053;-79
2022/07/20 10:37:27;;;;;;;179.38;166.70;;;27.40;55.50;;;;;;5026601;28;20117;-79
2022/07/20 10:40:13;;;;;;;178.23;165.52;;;27.40;55.10;;;;;;5005929;28;20059;-78
2022/07/20 10:42:42;;;;;;;178.52;165.82;;;27.50;55.40;;;;;;5009539;28;20137;-78
2022/07/20 10:45:35;;;;;;;177.80;165.00;;;27.50;54.80;;;;;;5007688;28;20054;-78
2022/07/20 10:48:16;;;;;;;174.50;162.10;;;27.50;54.90;;;;;;5022270;28;20975;-79
2022/07/20 10:50:46;;;;;;;176.25;163.75;;;27.50;55.00;;;;;;5027584;28;20055;-79
2022/07/20 10:53:40;;;;;;;174.63;162.00;;;27.60;55.10;;;;;;5017891;28;20253;-78
2022/07/20 10:56:07;;;;;;;176.35;163.65;;;27.60;56.20;;;;;;4996953;28;20058;-77
2022/07/20 10:58:35;;;;;;;169.98;157.75;;;27.60;56.20;;;;;;5023237;28;20936;-78
2022/07/20 11:01:06;;;;;;;170.80;158.43;;;27.60;55.90;;;;;;5008920;28;20052;-77
2022/07/20 11:03:37;;;;;;;169.95;157.70;;;27.70;55.60;;;;;;5025589;28;20056;-77
2022/07/20 11:06:12;;;;;;;167.50;155.20;;;27.70;55.70;;;;;;5009003;28;20065;-81
2022/07/20 11:08:40;;;;;;;173.77;161.43;;;27.80;55.40;;;;;;5025226;28;20062;-78
2022/07/20 11:11:14;;;;;;;172.90;160.75;;;27.90;55.90;;;;;;5005588;28;20753;-80
2022/07/20 11:13:40;;;;;;;179.20;166.77;;;27.80;55.00;;;;;;5023922;28;20061;-79
2022/07/20 11:16:08;;;;;;;174.77;162.52;;;27.90;55.90;;;;;;5010800;28;20054;-78
2022/07/20 11:18:36;;;;;;;180.88;168.10;;;27.90;55.30;;;;;;5025140;28;20085;-83
2022/07/20 11:21:05;;;;;;;179.10;166.90;;;28.00;55.10;;;;;;5038956;28;20144;-79
2022/07/20 11:23:41;;;;;;;180.93;168.57;;;28.00;55.20;;;;;;5028826;28;20086;-81
2022/07/20 11:26:10;;;;;;;170.93;158.70;;;28.10;55.60;;;;;;5006080;28;20059;-82
2022/07/20 11:28:38;;;;;;;176.15;163.70;;;28.10;54.20;;;;;;5019586;28;20514;-81
2022/07/20 11:31:07;;;;;;;170.00;158.10;;;28.20;54.80;;;;;;5039478;28;20061;-80
2022/07/20 11:33:36;;;;;;;174.15;161.65;;;28.10;54.60;;;;;;5021754;28;20055;-79
2022/07/20 11:36:05;;;;;;;176.02;163.68;;;28.10;54.60;;;;;;5038163;28;20061;-80
2022/07/20 11:38:39;;;;;;;175.13;162.98;;;28.20;54.70;;;;;;5022619;28;20047;-80
2022/07/20 11:41:09;;;;;;;174.75;162.57;;;28.20;54.40;;;;;;5008800;28;20416;-80
2022/07/20 11:43:37;;;;;;;176.52;164.05;;;28.20;53.90;;;;;;5024596;28;20058;-80
2022/07/20 11:46:13;;;;;;;172.07;159.50;;;28.20;53.60;;;;;;5006743;28;20046;-79
2022/07/20 11:48:40;;;;;;;167.80;155.80;;;28.30;53.50;;;;;;5005720;28;20129;-76
2022/07/20 11:51:08;;;;;;;167.35;155.57;;;28.30;54.30;;;;;;5015920;28;20065;-79
2022/07/20 11:53:37;;;;;;;169.77;157.90;;;28.30;53.40;;;;;;5023544;28;20054;-80
2022/07/20 11:56:11;;;;;;;171.38;159.52;;;28.30;54.20;;;;;;5010566;28;20830;-81
2022/07/20 11:58:39;;;;;;;170.55;158.75;;;28.30;54.20;;;;;;5025874;28;20555;-80
2022/07/20 12:01:10;;;;;;;170.40;158.20;;;28.40;54.40;;;;;;5013711;28;20050;-81
2022/07/20 12:03:39;;;;;;;173.85;161.77;;;28.40;53.70;;;;;;5036814;28;20046;-80
2022/07/20 12:06:08;;;;;;;173.93;162.05;;;28.40;54.00;;;;;;5007551;28;20050;-81
2022/07/20 12:08:35;;;;;;;176.82;164.73;;;28.40;53.50;;;;;;5022395;28;20050;-80
2022/07/20 12:11:02;;;;;;;176.93;164.55;;;28.50;53.50;;;;;;5009828;28;20506;-80
2022/07/20 12:13:32;;;;;;;179.10;167.02;;;28.50;52.90;;;;;;5021042;28;20516;-82
2022/07/20 12:16:02;;;;;;;178.55;166.55;;;28.50;53.10;;;;;;5020262;28;20612;-83
2022/07/20 12:18:41;;;;;;;181.43;169.32;;;28.60;51.90;;;;;;5016397;28;20084;-82
2022/07/20 12:21:11;;;;;;;178.85;166.82;;;28.50;51.30;;;;;;5015447;28;20050;-82
2022/07/20 12:23:39;;;;;;;171.68;160.00;;;28.50;51.10;;;;;;4985318;28;20058;-82
2022/07/20 12:26:25;;;;;;;169.77;158.20;;;28.40;51.30;;;;;;5004344;28;20061;-81
2022/07/20 12:28:55;;;;;;;172.50;160.40;;;28.50;52.20;;;;;;5018807;28;20054;-82
2022/07/20 12:31:25;;;;;;;169.82;158.38;;;28.50;51.90;;;;;;5016520;28;20055;-81
2022/07/20 12:34:03;;;;;;;174.82;163.10;;;28.40;52.00;;;;;;5022625;28;20121;-77
2022/07/20 12:36:36;;;;;;;180.85;168.63;;;28.40;52.30;;;;;;5002285;28;20050;-77
2022/07/20 12:39:05;;;;;;;178.68;166.68;;;28.50;51.90;;;;;;5022241;28;20046;-77
2022/07/20 12:41:33;;;;;;;177.85;166.13;;;28.50;52.10;;;;;;5004680;28;20055;-77
2022/07/20 12:44:25;;;;;;;179.65;167.63;;;28.50;52.00;;;;;;5022767;28;20060;-76
2022/07/20 12:46:52;;;;;;;;;;;28.50;52.30;;;;;;5018654;28;20098;-77
2022/07/20 12:49:20;;;;;;;173.32;161.02;;;28.60;52.10;;;;;;5024895;28;20061;-77
2022/07/20 12:51:47;;;;;;;180.68;168.32;;;28.60;51.90;;;;;;5005489;28;20046;-77
2022/07/20 12:54:14;;;;;;;181.55;169.20;;;28.60;51.80;;;;;;5012329;28;20133;-77
2022/07/20 12:56:41;;;;;;;182.52;170.35;;;28.60;51.40;;;;;;5026543;28;20053;-76
2022/07/20 12:59:10;;;;;;;176.02;164.18;;;28.70;51.70;;;;;;5010595;28;20054;-77
2022/07/20 13:01:37;;;;;;;177.30;165.73;;;28.70;51.00;;;;;;4989870;28;20152;-77
2022/07/20 13:04:04;;;;;;;176.73;164.85;;;28.70;50.70;;;;;;5022826;28;20057;-77
2022/07/20 13:06:32;;;;;;;179.73;167.98;;;28.70;51.00;;;;;;5027930;28;20065;-76
2022/07/20 13:09:00;;;;;;;180.95;168.93;;;28.70;51.20;;;;;;5024725;28;20051;-76
2022/07/20 13:11:27;;;;;;;182.30;170.13;;;28.70;51.60;;;;;;5025140;28;20046;-77
2022/07/20 13:13:54;;;;;;;180.95;169.23;;;28.80;51.70;;;;;;5022994;28;20053;-76
2022/07/20 13:16:22;;;;;;;181.27;169.18;;;28.70;50.40;;;;;;5025411;28;20046;-76
2022/07/20 13:18:49;;;;;;;174.60;162.88;;;28.70;50.20;;;;;;5012182;23;20050;-77